Terminal Aerodrome Forecast
Issued by NWS

Home | Current Version | Previous Version | Text Only | Print | Product List | Glossary On
Versions: 1 2 3 4 5 6 7 8 9 10 11 12 13 14 15 16
000
FTUS43 KUNR 232320
TAFGCC
TAF
KGCC 232320Z 2400/2424 36008KT P6SM BKN040
     FM240200 35008KT P6SM OVC020
     FM240500 36014KT 1 1/2SM -SN OVC008=

USA.gov is the U.S. government's official web portal to all federal, state and local government web resources and services.